Time;durP1;ratioP1;P1;durP2;ratioP2;P2;SDS_P1;SDS_P2;PMS_P1;PMS_P2;Temp;Humidity;BMP_temperature;BMP_pressure;BME280_temperature;BME280_humidity;BME280_pressure;Samples;Min_cycle;Max_cycle;Signal;HPM_P1;HPM_P2
2021/05/20 00:00:08;;;;;;;1.42;0.70;;;9.30;99.90;;;;;;5033298;28;20040;-74
2021/05/20 00:02:34;;;;;;;1.33;0.70;;;9.20;99.90;;;;;;5032958;28;20025;-74
2021/05/20 00:05:00;;;;;;;1.85;0.60;;;9.20;99.90;;;;;;5032912;28;20033;-74
2021/05/20 00:07:26;;;;;;;0.60;0.60;;;9.20;99.90;;;;;;5032652;28;20033;-74
2021/05/20 00:09:52;;;;;;;0.70;0.70;;;9.20;99.90;;;;;;5032842;28;20017;-74
2021/05/20 00:12:17;;;;;;;1.42;0.80;;;9.20;99.90;;;;;;5032567;28;20028;-74
2021/05/20 00:14:43;;;;;;;0.60;0.60;;;9.20;99.90;;;;;;5033080;28;20480;-74
2021/05/20 00:17:09;;;;;;;3.15;0.60;;;9.20;99.90;;;;;;5032936;28;20456;-74
2021/05/20 00:19:34;;;;;;;2.92;0.75;;;9.30;99.90;;;;;;5033124;28;20362;-74
2021/05/20 00:22:01;;;;;;;0.60;0.60;;;9.20;99.90;;;;;;5032861;28;20029;-74
2021/05/20 00:24:27;;;;;;;0.40;0.40;;;9.20;99.90;;;;;;5032964;28;20053;-76
2021/05/20 00:26:52;;;;;;;0.50;0.50;;;9.30;99.90;;;;;;5032576;28;20485;-75
2021/05/20 00:29:18;;;;;;;0.68;0.60;;;9.20;99.90;;;;;;5032382;28;20025;-75
2021/05/20 00:31:44;;;;;;;1.27;0.60;;;9.30;99.90;;;;;;5031308;28;20049;-75
2021/05/20 00:34:10;;;;;;;0.63;0.55;;;9.30;99.90;;;;;;5032340;28;20071;-75
2021/05/20 00:36:35;;;;;;;0.38;0.38;;;9.30;99.90;;;;;;5031870;28;20041;-75
2021/05/20 00:39:02;;;;;;;0.60;0.60;;;9.30;99.90;;;;;;5032205;28;20029;-75
2021/05/20 00:41:29;;;;;;;0.55;0.55;;;9.20;99.90;;;;;;5032038;28;20547;-75
2021/05/20 00:43:54;;;;;;;0.60;0.60;;;9.20;99.90;;;;;;5032335;28;20033;-75
2021/05/20 00:46:20;;;;;;;0.50;0.50;;;9.20;99.90;;;;;;5032028;28;20030;-75
2021/05/20 00:48:46;;;;;;;2.65;0.50;;;9.30;99.90;;;;;;5032065;28;20025;-75
2021/05/20 00:51:12;;;;;;;0.50;0.50;;;9.20;99.90;;;;;;5032402;28;20049;-75
2021/05/20 00:53:37;;;;;;;0.50;0.50;;;9.30;99.90;;;;;;5018083;28;20641;-75
2021/05/20 00:56:04;;;;;;;0.40;0.40;;;9.30;99.90;;;;;;5031996;28;20179;-75
2021/05/20 00:58:30;;;;;;;0.60;0.60;;;9.20;99.90;;;;;;5031799;28;20029;-75
2021/05/20 01:00:56;;;;;;;2.47;0.50;;;9.20;99.90;;;;;;5031760;28;20163;-74
2021/05/20 01:03:22;;;;;;;0.60;0.60;;;9.20;99.90;;;;;;5031899;28;20107;-74
2021/05/20 01:05:52;;;;;;;0.40;0.40;;;9.20;99.90;;;;;;5031482;28;20021;-74
2021/05/20 01:08:17;;;;;;;0.50;0.50;;;9.20;99.90;;;;;;5031941;28;20033;-74
2021/05/20 01:10:43;;;;;;;0.57;0.45;;;9.20;99.90;;;;;;5031754;28;20416;-74
2021/05/20 01:13:09;;;;;;;0.82;0.55;;;9.10;99.90;;;;;;5031953;28;20080;-74
2021/05/20 01:15:35;;;;;;;1.35;0.50;;;9.10;99.90;;;;;;5031577;28;20097;-74
2021/05/20 01:18:04;;;;;;;0.90;0.40;;;9.10;99.90;;;;;;5031940;28;20112;-74
2021/05/20 01:20:33;;;;;;;2.50;0.40;;;9.10;99.90;;;;;;5031380;28;20032;-75
2021/05/20 01:23:14;;;;;;;0.50;0.50;;;9.10;99.90;;;;;;5031866;28;20032;-75
2021/05/20 01:25:44;;;;;;;0.40;0.40;;;9.00;99.90;;;;;;5031555;28;20396;-74
2021/05/20 01:28:21;;;;;;;0.40;0.40;;;9.10;99.90;;;;;;5031811;28;20028;-75
2021/05/20 01:30:49;;;;;;;0.30;0.30;;;9.00;99.90;;;;;;5031724;28;20033;-75
2021/05/20 01:33:16;;;;;;;0.35;0.35;;;9.10;99.90;;;;;;5031559;28;20553;-75
2021/05/20 01:35:44;;;;;;;0.40;0.40;;;9.00;99.90;;;;;;5031621;28;20640;-75
2021/05/20 01:41:01;;;;;;;0.40;0.40;;;9.00;99.90;;;;;;5031497;28;20037;-74
2021/05/20 01:43:27;;;;;;;0.45;0.45;;;9.00;99.90;;;;;;5017788;28;20033;-73
2021/05/20 01:46:00;;;;;;;3.47;0.52;;;9.00;99.90;;;;;;5031712;28;20095;-73
2021/05/20 01:48:38;;;;;;;0.75;0.50;;;9.00;99.90;;;;;;5031215;28;20033;-73
2021/05/20 01:51:17;;;;;;;0.43;0.43;;;9.00;99.90;;;;;;5031538;28;20385;-73
2021/05/20 01:53:51;;;;;;;0.57;0.50;;;9.10;99.90;;;;;;5018395;28;20124;-73
2021/05/20 01:56:18;;;;;;;0.40;0.40;;;9.10;99.90;;;;;;5031730;28;20021;-73
2021/05/20 01:58:44;;;;;;;0.50;0.50;;;9.10;99.90;;;;;;5031400;28;20029;-73
2021/05/20 02:01:11;;;;;;;0.40;0.40;;;9.10;99.90;;;;;;5031201;28;20105;-73
2021/05/20 02:03:37;;;;;;;1.20;0.40;;;9.10;99.90;;;;;;5031180;28;20091;-73
2021/05/20 02:06:04;;;;;;;0.40;0.40;;;9.00;99.90;;;;;;5031509;28;20033;-73
2021/05/20 02:08:32;;;;;;;0.40;0.40;;;9.00;99.90;;;;;;5030874;28;20025;-73
2021/05/20 02:10:58;;;;;;;0.50;0.40;;;9.00;99.90;;;;;;5031489;28;20037;-73
2021/05/20 02:13:24;;;;;;;0.50;0.50;;;9.00;99.90;;;;;;5034937;28;20044;-73
2021/05/20 02:15:51;;;;;;;0.38;0.30;;;9.00;99.90;;;;;;5035438;28;20435;-74
2021/05/20 02:18:17;;;;;;;0.40;0.40;;;9.00;99.90;;;;;;5035203;28;20029;-74
2021/05/20 02:20:46;;;;;;;0.52;0.40;;;9.00;99.90;;;;;;5034913;28;20112;-72
2021/05/20 02:23:12;;;;;;;1.10;0.70;;;9.00;99.90;;;;;;5034874;28;20499;-73
2021/05/20 02:25:39;;;;;;;0.40;0.40;;;9.00;99.90;;;;;;5034631;28;20025;-77
2021/05/20 02:28:04;;;;;;;0.40;0.40;;;9.00;99.90;;;;;;5034794;28;20025;-76
2021/05/20 02:30:32;;;;;;;1.60;0.40;;;9.00;99.90;;;;;;5034873;28;20345;-76
2021/05/20 02:32:58;;;;;;;0.40;0.40;;;8.90;99.90;;;;;;5034565;28;20033;-76
2021/05/20 02:35:25;;;;;;;0.77;0.57;;;9.00;99.90;;;;;;5034667;28;20095;-76
2021/05/20 02:37:51;;;;;;;0.47;0.47;;;8.90;99.90;;;;;;5034286;28;20053;-76
2021/05/20 02:40:17;;;;;;;0.68;0.50;;;9.00;99.90;;;;;;5034642;28;20113;-76
2021/05/20 02:42:44;;;;;;;0.40;0.40;;;9.00;99.90;;;;;;5034381;28;20033;-76
2021/05/20 02:45:15;;;;;;;0.50;0.50;;;9.00;99.90;;;;;;5034405;28;20461;-76
2021/05/20 02:47:42;;;;;;;2.38;0.43;;;9.00;99.90;;;;;;5034226;28;20029;-73
2021/05/20 02:50:08;;;;;;;2.30;0.50;;;9.00;99.90;;;;;;5034354;28;20105;-72
2021/05/20 02:52:34;;;;;;;0.85;0.43;;;9.00;99.90;;;;;;5034268;28;20022;-72
2021/05/20 02:55:03;;;;;;;0.50;0.50;;;9.00;99.90;;;;;;5034436;28;20026;-72
2021/05/20 02:57:29;;;;;;;0.38;0.38;;;9.10;99.90;;;;;;5034257;28;20021;-72
2021/05/20 02:59:56;;;;;;;0.30;0.30;;;9.10;99.90;;;;;;5034591;28;20052;-72
2021/05/20 03:02:22;;;;;;;0.95;0.50;;;9.10;99.90;;;;;;5034460;28;20033;-72
2021/05/20 03:04:50;;;;;;;0.38;0.38;;;9.10;99.90;;;;;;5034226;28;20029;-72
2021/05/20 03:07:16;;;;;;;0.40;0.40;;;9.10;99.90;;;;;;5034014;28;20024;-72
2021/05/20 03:09:42;;;;;;;4.95;0.50;;;9.10;99.90;;;;;;5034241;28;20029;-72
2021/05/20 03:12:09;;;;;;;0.60;0.60;;;9.10;99.90;;;;;;5033813;28;20469;-72
2021/05/20 03:14:35;;;;;;;0.50;0.50;;;9.10;99.90;;;;;;5033814;28;20030;-72
2021/05/20 03:17:04;;;;;;;0.40;0.40;;;9.10;99.90;;;;;;5034154;28;20088;-74
2021/05/20 03:19:30;;;;;;;0.50;0.50;;;9.10;99.90;;;;;;5034110;28;20033;-75
2021/05/20 03:21:55;;;;;;;0.30;0.30;;;9.20;99.90;;;;;;5033843;28;20021;-74
2021/05/20 03:24:21;;;;;;;1.52;0.40;;;9.20;99.90;;;;;;5033902;28;20028;-74
2021/05/20 03:26:47;;;;;;;0.40;0.40;;;9.20;99.90;;;;;;5033608;28;20516;-73
2021/05/20 03:29:12;;;;;;;0.40;0.40;;;9.20;99.90;;;;;;5033805;28;20026;-74
2021/05/20 03:31:39;;;;;;;1.08;0.40;;;9.20;99.90;;;;;;5033499;28;20468;-74
2021/05/20 03:34:05;;;;;;;2.10;0.50;;;9.20;99.90;;;;;;5033627;28;20038;-74
2021/05/20 03:36:31;;;;;;;0.40;0.40;;;9.20;99.90;;;;;;5033379;28;20063;-75
2021/05/20 03:38:57;;;;;;;7.63;0.50;;;9.30;99.90;;;;;;5033328;28;20614;-74
2021/05/20 03:41:23;;;;;;;0.30;0.30;;;9.30;99.90;;;;;;5033718;28;20028;-74
2021/05/20 03:43:49;;;;;;;0.30;0.30;;;9.30;99.90;;;;;;5033827;28;20026;-74
2021/05/20 03:46:15;;;;;;;0.30;0.30;;;9.30;99.90;;;;;;5033312;28;20108;-74
2021/05/20 03:48:40;;;;;;;2.90;0.50;;;9.40;99.90;;;;;;5033165;28;20063;-75
2021/05/20 03:51:06;;;;;;;1.63;0.60;;;9.50;99.90;;;;;;5020212;28;20113;-74
2021/05/20 03:53:32;;;;;;;2.80;0.47;;;9.60;99.90;;;;;;5032052;28;20049;-73
2021/05/20 03:55:59;;;;;;;3.92;0.73;;;9.70;99.90;;;;;;5033049;28;20056;-73
2021/05/20 03:58:26;;;;;;;1.08;0.45;;;9.70;99.90;;;;;;5032756;28;20032;-73
2021/05/20 04:00:52;;;;;;;0.40;0.40;;;9.80;99.90;;;;;;5032981;28;20059;-73
2021/05/20 04:03:24;;;;;;;2.95;0.50;;;9.80;99.90;;;;;;5032821;28;20122;-73
2021/05/20 04:06:01;;;;;;;0.40;0.40;;;9.80;99.90;;;;;;5033009;28;20163;-75
2021/05/20 04:08:27;;;;;;;1.30;0.50;;;9.80;99.90;;;;;;5032975;28;20025;-75
2021/05/20 04:10:53;;;;;;;0.68;0.38;;;9.80;99.90;;;;;;5033223;28;20025;-75
2021/05/20 04:13:31;;;;;;;0.30;0.30;;;9.70;99.90;;;;;;5032869;28;20116;-75
2021/05/20 04:15:57;;;;;;;0.20;0.20;;;9.80;99.90;;;;;;5032873;28;20021;-75
2021/05/20 04:18:24;;;;;;;1.85;0.30;;;9.80;99.90;;;;;;5032789;28;20449;-75
2021/05/20 04:20:51;;;;;;;1.15;0.30;;;9.80;99.90;;;;;;5032873;28;20505;-75
2021/05/20 04:23:17;;;;;;;2.10;0.47;;;9.80;99.90;;;;;;5033015;28;20037;-75
2021/05/20 04:25:43;;;;;;;0.30;0.30;;;9.90;99.90;;;;;;5032733;28;20022;-73
2021/05/20 04:28:09;;;;;;;0.30;0.30;;;9.90;99.90;;;;;;5032702;28;20104;-73
2021/05/20 04:30:35;;;;;;;0.40;0.40;;;9.90;99.20;;;;;;5032409;28;20029;-77
2021/05/20 04:33:03;;;;;;;2.70;0.40;;;10.00;98.60;;;;;;5032419;28;20091;-75
2021/05/20 04:35:29;;;;;;;2.42;0.22;;;10.00;98.00;;;;;;5031669;28;20083;-74
2021/05/20 04:37:55;;;;;;;1.27;0.40;;;10.10;98.30;;;;;;5031954;28;20045;-76
2021/05/20 04:40:20;;;;;;;2.40;0.40;;;11.00;99.90;;;;;;5031810;28;20116;-72
2021/05/20 04:42:46;;;;;;;0.30;0.30;;;12.40;99.90;;;;;;5032121;28;20021;-71
2021/05/20 04:45:13;;;;;;;0.20;0.20;;;13.20;94.50;;;;;;5031729;28;20428;-75
2021/05/20 04:47:38;;;;;;;0.20;0.20;;;13.20;84.70;;;;;;5019006;28;20422;-74
2021/05/20 04:50:05;;;;;;;0.40;0.40;;;12.90;81.30;;;;;;5029861;28;20109;-75
2021/05/20 04:52:31;;;;;;;2.53;0.30;;;12.60;80.90;;;;;;5014471;28;20041;-74
2021/05/20 04:54:57;;;;;;;2.15;0.30;;;12.60;81.70;;;;;;5016581;28;20420;-72
2021/05/20 04:57:23;;;;;;;0.30;0.30;;;12.70;81.60;;;;;;5019365;28;20092;-72
2021/05/20 04:59:48;;;;;;;0.30;0.30;;;12.90;80.00;;;;;;5016328;28;20025;-72
2021/05/20 05:02:14;;;;;;;0.98;0.20;;;13.20;77.20;;;;;;5018588;28;20034;-72
2021/05/20 05:04:40;;;;;;;1.02;0.20;;;13.40;77.10;;;;;;5017059;28;20025;-72
2021/05/20 05:07:05;;;;;;;1.38;0.50;;;13.70;75.00;;;;;;5013209;28;20028;-73
2021/05/20 05:09:31;;;;;;;0.82;0.28;;;14.10;73.20;;;;;;5011603;28;20026;-72
2021/05/20 05:11:57;;;;;;;0.20;0.20;;;14.30;71.40;;;;;;5016921;28;20036;-72
2021/05/20 05:14:23;;;;;;;0.20;0.20;;;14.50;70.00;;;;;;5020776;28;20041;-74
2021/05/20 05:16:49;;;;;;;1.38;0.30;;;14.50;67.90;;;;;;5030871;28;20376;-71
2021/05/20 05:19:14;;;;;;;1.45;0.20;;;14.40;68.60;;;;;;5023605;28;20374;-74
2021/05/20 05:21:40;;;;;;;2.45;0.35;;;14.40;68.30;;;;;;5024405;28;20552;-71
2021/05/20 05:24:06;;;;;;;2.30;0.38;;;14.50;67.20;;;;;;5031648;28;20018;-80
2021/05/20 05:26:32;;;;;;;0.80;0.30;;;14.30;66.40;;;;;;5031864;28;20026;-85
2021/05/20 05:28:58;;;;;;;2.65;0.20;;;14.30;67.60;;;;;;5031571;28;20028;-82
2021/05/20 05:31:25;;;;;;;2.88;0.40;;;14.30;67.90;;;;;;5031761;28;20063;-76
2021/05/20 05:33:52;;;;;;;0.63;0.32;;;14.50;67.80;;;;;;5012597;28;20125;-75
2021/05/20 05:36:18;;;;;;;1.98;0.30;;;14.60;66.80;;;;;;5024413;28;20124;-75
2021/05/20 05:38:44;;;;;;;0.77;0.20;;;14.60;66.80;;;;;;5027245;28;20112;-75
2021/05/20 05:41:10;;;;;;;1.77;0.20;;;14.60;66.70;;;;;;5027542;28;20121;-75
2021/05/20 05:43:36;;;;;;;1.98;0.20;;;14.60;66.20;;;;;;5031512;28;20026;-75
2021/05/20 05:46:02;;;;;;;0.32;0.20;;;14.60;66.80;;;;;;5031717;28;20369;-75
2021/05/20 05:48:27;;;;;;;1.88;0.25;;;14.70;66.90;;;;;;5035372;28;20026;-75
2021/05/20 05:50:56;;;;;;;0.98;0.40;;;14.90;67.10;;;;;;5035376;28;20048;-75
2021/05/20 05:53:22;;;;;;;4.70;0.47;;;15.10;67.50;;;;;;5035440;28;20052;-75
2021/05/20 05:55:47;;;;;;;0.73;0.30;;;15.30;66.00;;;;;;5035545;28;20026;-75
2021/05/20 05:58:13;;;;;;;1.23;0.20;;;15.20;64.60;;;;;;5035290;28;20084;-75
2021/05/20 06:00:39;;;;;;;1.88;0.60;;;15.20;64.70;;;;;;5035617;28;20033;-75
2021/05/20 06:03:06;;;;;;;4.30;0.40;;;15.40;65.60;;;;;;5035164;28;20105;-72
2021/05/20 06:05:32;;;;;;;2.30;0.22;;;15.60;64.40;;;;;;5035369;28;20033;-73
2021/05/20 06:07:58;;;;;;;0.55;0.25;;;16.00;70.10;;;;;;5037946;28;20083;-74
2021/05/20 06:10:24;;;;;;;0.20;0.20;;;16.60;64.40;;;;;;5015759;28;20393;-75
2021/05/20 06:12:50;;;;;;;1.48;0.20;;;16.70;62.40;;;;;;4999901;28;20553;-77
2021/05/20 06:15:16;;;;;;;0.38;0.20;;;17.10;65.50;;;;;;5020329;28;20018;-75
2021/05/20 06:17:42;;;;;;;8.40;0.40;;;17.50;62.20;;;;;;5020142;28;20385;-76
2021/05/20 06:20:09;;;;;;;0.43;0.17;;;17.80;64.70;;;;;;4999497;28;20041;-78
2021/05/20 06:22:36;;;;;;;0.38;0.25;;;18.30;61.90;;;;;;5035056;28;20112;-75
2021/05/20 06:25:05;;;;;;;0.20;0.20;;;17.90;57.30;;;;;;5034961;28;20101;-79
2021/05/20 06:27:31;;;;;;;2.40;0.30;;;17.90;58.50;;;;;;5016196;28;20049;-79
2021/05/20 06:29:57;;;;;;;8.40;0.93;;;17.80;58.00;;;;;;5008589;28;20469;-76
2021/05/20 06:32:23;;;;;;;7.65;0.57;;;17.70;57.50;;;;;;5025367;28;20029;-76
2021/05/20 06:34:50;;;;;;;0.43;0.20;;;17.90;60.40;;;;;;5024398;28;20038;-78
2021/05/20 06:37:15;;;;;;;1.85;0.50;;;18.10;60.00;;;;;;5034178;28;20048;-79
2021/05/20 06:39:42;;;;;;;0.65;0.25;;;18.40;60.90;;;;;;5026163;28;20025;-80
2021/05/20 06:42:10;;;;;;;0.20;0.20;;;18.80;60.90;;;;;;5026926;28;20189;-74
2021/05/20 06:44:37;;;;;;;0.20;0.20;;;18.70;56.10;;;;;;5021582;28;20029;-78
2021/05/20 06:47:03;;;;;;;5.25;0.60;;;18.50;56.40;;;;;;5034251;28;20025;-76
2021/05/20 06:49:30;;;;;;;1.05;0.10;;;18.40;57.90;;;;;;5034263;28;20026;-76
2021/05/20 06:51:55;;;;;;;0.10;0.10;;;18.60;56.30;;;;;;5033949;28;20060;-73
2021/05/20 06:54:21;;;;;;;0.60;0.10;;;18.40;55.00;;;;;;5033974;28;20068;-75
2021/05/20 06:56:52;;;;;;;0.00;0.00;;;18.30;56.00;;;;;;5033666;28;20049;-74
2021/05/20 07:02:02;;;;;;;0.10;0.10;;;18.10;54.70;;;;;;5016471;28;20500;-72
2021/05/20 07:04:28;;;;;;;0.10;0.10;;;18.10;55.40;;;;;;5014710;28;20022;-70
2021/05/20 07:06:54;;;;;;;0.15;0.10;;;18.00;54.60;;;;;;5016425;28;20021;-73
2021/05/20 07:09:20;;;;;;;0.10;0.10;;;17.90;54.50;;;;;;5022914;28;20030;-72
2021/05/20 07:11:46;;;;;;;0.10;0.10;;;17.80;55.10;;;;;;5034038;28;20037;-73
2021/05/20 07:14:12;;;;;;;0.35;0.10;;;17.70;55.50;;;;;;5033880;28;20026;-74
2021/05/20 07:16:37;;;;;;;0.93;0.20;;;17.70;56.80;;;;;;5024177;28;20030;-75
2021/05/20 07:19:03;;;;;;;0.10;0.10;;;17.90;56.60;;;;;;5017642;28;20026;-79
2021/05/20 07:21:29;;;;;;;0.98;0.20;;;18.00;57.00;;;;;;5015687;28;20054;-72
2021/05/20 07:23:54;;;;;;;0.13;0.13;;;17.90;57.50;;;;;;5015753;28;20074;-69
2021/05/20 07:26:20;;;;;;;0.82;0.20;;;17.90;56.70;;;;;;5013726;28;20110;-69
2021/05/20 07:28:46;;;;;;;5.43;0.50;;;17.70;55.10;;;;;;5013692;28;20033;-69
2021/05/20 07:31:12;;;;;;;2.33;0.30;;;17.50;55.40;;;;;;5016104;28;20018;-68
2021/05/20 07:33:38;;;;;;;0.35;0.20;;;17.50;56.30;;;;;;5015304;28;20033;-70
2021/05/20 07:36:05;;;;;;;0.25;0.10;;;17.50;56.00;;;;;;5016789;28;20080;-70
2021/05/20 07:38:32;;;;;;;0.55;0.10;;;17.50;55.30;;;;;;5014609;28;20057;-70
2021/05/20 07:40:58;;;;;;;0.10;0.10;;;17.50;54.80;;;;;;5027201;28;20029;-71
2021/05/20 07:43:24;;;;;;;0.20;0.10;;;17.50;54.70;;;;;;5019072;28;20033;-71
2021/05/20 07:45:51;;;;;;;0.10;0.10;;;17.60;56.10;;;;;;5013399;28;20022;-71
2021/05/20 07:48:17;;;;;;;1.45;0.10;;;17.60;54.80;;;;;;5017074;28;20026;-72
2021/05/20 07:50:43;;;;;;;0.80;0.10;;;17.60;53.70;;;;;;5013609;28;20053;-71
2021/05/20 07:53:10;;;;;;;0.10;0.10;;;17.60;53.80;;;;;;5016761;28;20057;-72
2021/05/20 07:55:37;;;;;;;7.32;0.60;;;17.50;54.50;;;;;;5014929;28;20022;-71
2021/05/20 07:58:05;;;;;;;1.30;0.15;;;17.50;53.10;;;;;;5026356;28;20047;-71
2021/05/20 08:00:31;;;;;;;0.10;0.10;;;17.40;54.10;;;;;;5016733;28;20040;-71
2021/05/20 08:06:03;;;;;;;1.75;0.30;;;17.40;53.40;;;;;;4995211;28;20535;-71
2021/05/20 08:11:05;;;;;;;0.60;0.20;;;17.50;54.90;;;;;;5019173;28;20069;-72
2021/05/20 08:13:32;;;;;;;0.98;0.20;;;17.50;53.50;;;;;;5013531;28;20032;-72
2021/05/20 08:15:59;;;;;;;0.90;0.30;;;17.50;53.50;;;;;;5012388;28;20399;-73
2021/05/20 08:18:25;;;;;;;0.10;0.10;;;17.50;54.70;;;;;;5012724;28;20092;-72
2021/05/20 08:20:51;;;;;;;0.32;0.10;;;17.60;54.00;;;;;;5012972;28;20034;-73
2021/05/20 08:23:17;;;;;;;0.20;0.17;;;17.60;53.40;;;;;;5011636;28;20029;-72
2021/05/20 08:25:43;;;;;;;0.10;0.10;;;17.60;53.10;;;;;;5016764;28;20038;-73
2021/05/20 08:28:08;;;;;;;0.20;0.10;;;17.50;53.70;;;;;;5013424;28;20030;-72
2021/05/20 08:30:34;;;;;;;0.10;0.10;;;17.60;54.70;;;;;;5016060;28;20030;-72
2021/05/20 08:33:00;;;;;;;0.30;0.10;;;17.70;53.20;;;;;;5012817;28;20520;-72
2021/05/20 08:35:26;;;;;;;0.35;0.20;;;17.70;52.40;;;;;;5015428;28;20428;-72
2021/05/20 08:37:52;;;;;;;0.47;0.10;;;17.70;52.60;;;;;;5024045;28;20042;-72
2021/05/20 08:40:18;;;;;;;2.50;0.15;;;17.70;51.20;;;;;;5028240;28;20388;-75
2021/05/20 08:42:44;;;;;;;0.10;0.10;;;17.60;51.20;;;;;;5018135;28;20132;-72
2021/05/20 08:45:11;;;;;;;0.10;0.10;;;17.60;51.70;;;;;;5028944;28;20038;-71
2021/05/20 08:47:37;;;;;;;0.20;0.20;;;17.60;51.80;;;;;;5021657;28;20025;-73
2021/05/20 08:50:04;;;;;;;0.20;0.20;;;17.60;51.50;;;;;;5027377;28;20079;-73
2021/05/20 08:52:32;;;;;;;0.10;0.10;;;17.60;50.60;;;;;;5015982;28;20030;-73
2021/05/20 08:54:58;;;;;;;0.10;0.10;;;17.60;51.20;;;;;;5019059;28;20033;-73
2021/05/20 08:57:24;;;;;;;1.83;0.10;;;17.60;51.00;;;;;;5014676;28;20385;-73
2021/05/20 08:59:50;;;;;;;0.77;0.13;;;17.60;50.90;;;;;;5017761;28;20022;-73
2021/05/20 09:02:27;;;;;;;0.10;0.10;;;17.60;51.10;;;;;;5014899;28;20164;-73
2021/05/20 09:05:08;;;;;;;0.10;0.10;;;17.70;51.10;;;;;;5013771;28;20036;-72
2021/05/20 09:07:36;;;;;;;0.10;0.10;;;17.70;50.40;;;;;;5014767;28;20041;-72
2021/05/20 09:10:08;;;;;;;1.10;0.20;;;17.70;51.70;;;;;;5015326;28;20021;-71
2021/05/20 09:12:34;;;;;;;4.53;4.07;;;17.70;52.00;;;;;;5019527;28;20040;-73
2021/05/20 09:15:00;;;;;;;0.35;0.35;;;17.80;51.60;;;;;;5022721;28;20068;-73
2021/05/20 09:17:25;;;;;;;0.20;0.20;;;17.80;50.70;;;;;;5031504;28;20017;-73
2021/05/20 09:19:53;;;;;;;16.55;1.20;;;17.80;51.10;;;;;;5030633;28;20524;-69
2021/05/20 09:22:20;;;;;;;0.17;0.10;;;17.80;51.80;;;;;;5025277;28;20041;-70
2021/05/20 09:24:51;;;;;;;2.08;0.32;;;18.00;51.80;;;;;;5021593;28;20087;-71
2021/05/20 09:27:38;;;;;;;2.80;0.20;;;18.10;52.10;;;;;;5022014;28;20045;-70
2021/05/20 09:30:06;;;;;;;0.85;0.20;;;18.10;51.80;;;;;;5038390;28;20025;-76
2021/05/20 09:32:37;;;;;;;0.65;0.20;;;18.20;52.40;;;;;;5013654;28;20100;-70
2021/05/20 09:35:04;;;;;;;1.02;0.20;;;18.20;52.80;;;;;;5021204;28;20029;-72
2021/05/20 09:37:30;;;;;;;0.45;0.15;;;18.40;54.40;;;;;;5018707;28;20052;-70
2021/05/20 09:40:01;;;;;;;0.20;0.20;;;18.40;50.40;;;;;;5029037;28;20105;-73
2021/05/20 09:42:31;;;;;;;2.60;0.30;;;18.20;50.00;;;;;;5031177;28;20104;-71
2021/05/20 09:45:10;;;;;;;0.10;0.10;;;18.20;50.70;;;;;;5031282;28;20441;-71
2021/05/20 09:47:36;;;;;;;0.25;0.15;;;18.20;50.90;;;;;;5031548;28;20408;-71
2021/05/20 09:50:11;;;;;;;0.10;0.10;;;18.10;50.20;;;;;;5031095;28;20017;-71
2021/05/20 09:52:37;;;;;;;0.32;0.10;;;18.10;50.30;;;;;;5031291;28;20029;-71
2021/05/20 09:55:19;;;;;;;3.50;0.20;;;18.10;50.20;;;;;;5031067;28;20533;-70
2021/05/20 09:57:45;;;;;;;4.57;0.20;;;18.10;50.10;;;;;;5031275;28;20033;-70
2021/05/20 10:00:15;;;;;;;3.13;0.40;;;18.20;49.60;;;;;;5031097;28;20013;-70
2021/05/20 10:02:42;;;;;;;;;;;18.30;53.70;;;;;;5032054;28;20528;-70
2021/05/20 10:05:26;;;;;;;1.45;0.10;;;18.40;49.40;;;;;;5031145;28;19913;-70
2021/05/20 10:07:51;;;;;;;0.10;0.10;;;18.40;49.60;;;;;;5031042;28;20041;-70
2021/05/20 10:10:19;;;;;;;0.10;0.10;;;18.30;49.50;;;;;;5017469;28;20017;-70
2021/05/20 10:12:45;;;;;;;0.10;0.10;;;18.20;48.80;;;;;;5031495;28;20030;-70
2021/05/20 10:15:17;;;;;;;0.17;0.10;;;18.10;50.60;;;;;;5031146;28;20073;-70
2021/05/20 10:17:43;;;;;;;0.68;0.20;;;18.10;50.60;;;;;;5031158;28;20112;-70
2021/05/20 10:20:11;;;;;;;0.10;0.10;;;18.20;50.50;;;;;;5030919;28;20433;-70
2021/05/20 10:22:38;;;;;;;1.90;0.20;;;18.30;50.00;;;;;;5031262;28;20033;-67
2021/05/20 10:25:05;;;;;;;1.88;0.20;;;18.30;50.00;;;;;;5030808;28;20026;-67
2021/05/20 10:27:31;;;;;;;2.35;0.20;;;18.40;49.80;;;;;;5031199;28;20159;-67
2021/05/20 10:30:00;;;;;;;0.25;0.10;;;18.50;49.90;;;;;;5031031;28;20116;-67
2021/05/20 10:32:28;;;;;;;0.03;0.03;;;18.60;49.40;;;;;;5031576;28;20101;-69
2021/05/20 10:34:59;;;;;;;0.40;0.10;;;18.60;49.30;;;;;;5034510;28;20112;-69
2021/05/20 10:37:37;;;;;;;0.10;0.10;;;18.60;49.30;;;;;;5034388;28;20048;-69
2021/05/20 10:40:27;;;;;;;0.10;0.10;;;18.60;47.90;;;;;;5034874;28;20424;-69
2021/05/20 10:43:08;;;;;;;0.10;0.10;;;18.60;47.00;;;;;;5022676;28;20053;-69
2021/05/20 10:45:36;;;;;;;0.20;0.20;;;18.60;46.40;;;;;;5034519;28;20272;-69
2021/05/20 10:48:04;;;;;;;0.57;0.17;;;18.50;46.50;;;;;;5034682;28;20037;-69
2021/05/20 10:50:55;;;;;;;0.30;0.20;;;18.50;47.10;;;;;;5034782;28;20412;-69
2021/05/20 10:53:46;;;;;;;0.10;0.10;;;18.60;48.20;;;;;;5034367;28;20037;-69
2021/05/20 10:56:11;;;;;;;0.20;0.10;;;18.60;47.70;;;;;;5004383;28;20472;-69
2021/05/20 10:58:38;;;;;;;0.70;0.10;;;18.60;48.30;;;;;;5035528;28;20022;-69
2021/05/20 11:01:28;;;;;;;3.70;0.45;;;18.60;48.10;;;;;;5017004;28;20029;-69
2021/05/20 11:03:59;;;;;;;0.10;0.10;;;18.70;47.30;;;;;;5024630;28;20072;-69
2021/05/20 11:06:37;;;;;;;0.10;0.10;;;18.80;48.40;;;;;;5034199;28;20079;-69
2021/05/20 11:09:29;;;;;;;1.88;0.20;;;18.70;48.10;;;;;;5021159;28;20052;-69
2021/05/20 11:11:54;;;;;;;4.45;0.20;;;18.70;48.70;;;;;;5032088;28;20037;-69
2021/05/20 11:14:26;;;;;;;0.60;0.20;;;18.80;47.70;;;;;;5033880;28;20048;-69
2021/05/20 11:16:53;;;;;;;2.67;0.20;;;18.90;48.40;;;;;;5034002;28;20104;-69
2021/05/20 11:19:28;;;;;;;0.10;0.10;;;18.90;49.10;;;;;;5033781;28;20584;-70
2021/05/20 11:24:41;;;;;;;1.67;0.20;;;19.00;48.50;;;;;;5028128;28;20030;-70
2021/05/20 11:27:18;;;;;;;2.17;0.20;;;19.00;46.90;;;;;;5024035;28;20384;-70
2021/05/20 11:29:47;;;;;;;2.65;0.20;;;18.90;46.30;;;;;;5014013;28;20088;-69
2021/05/20 11:37:32;;;;;;;0.10;0.10;;;18.80;46.20;;;;;;5030981;28;20057;-70
2021/05/20 11:39:59;;;;;;;0.10;0.10;;;18.70;46.50;;;;;;5033219;28;20389;-70
2021/05/20 11:42:27;;;;;;;0.22;0.22;;;18.70;45.80;;;;;;5033459;28;20495;-70
2021/05/20 11:44:55;;;;;;;0.10;0.10;;;18.70;46.40;;;;;;5026115;28;20531;-69
2021/05/20 11:47:22;;;;;;;0.00;0.00;;;18.80;46.90;;;;;;5015408;28;20025;-68
2021/05/20 11:49:48;;;;;;;2.80;0.15;;;18.80;46.80;;;;;;5032989;28;20501;-69
2021/05/20 11:52:14;;;;;;;0.38;0.10;;;18.70;47.70;;;;;;5033135;28;20059;-69
2021/05/20 11:54:49;;;;;;;1.80;0.10;;;18.70;47.60;;;;;;5032995;28;20061;-69
2021/05/20 11:57:17;;;;;;;0.10;0.10;;;18.80;48.30;;;;;;5033298;28;20029;-69
2021/05/20 11:59:48;;;;;;;0.17;0.17;;;18.80;47.50;;;;;;5032830;28;20036;-69
2021/05/20 12:02:18;;;;;;;0.10;0.10;;;18.80;47.10;;;;;;5025646;28;20018;-69
2021/05/20 12:04:44;;;;;;;0.30;0.10;;;18.70;46.90;;;;;;5032878;28;20501;-69
2021/05/20 12:07:24;;;;;;;0.10;0.10;;;18.70;48.50;;;;;;5024730;28;20033;-69
2021/05/20 12:09:54;;;;;;;6.82;0.60;;;18.80;47.70;;;;;;5032897;28;20045;-70
2021/05/20 12:12:20;;;;;;;;;;;18.90;49.10;;;;;;5019641;28;20113;-71
2021/05/20 12:14:47;;;;;;;3.60;0.20;;;19.00;46.50;;;;;;5022514;28;20004;-71
2021/05/20 12:17:18;;;;;;;0.55;0.20;;;19.10;48.10;;;;;;5028653;28;20477;-73
2021/05/20 12:19:52;;;;;;;15.07;0.45;;;19.10;48.70;;;;;;5029319;28;20112;-72
2021/05/20 12:22:30;;;;;;;0.38;0.08;;;19.30;48.20;;;;;;5032516;28;20018;-70
2021/05/20 12:24:56;;;;;;;0.10;0.10;;;19.20;46.70;;;;;;5032398;28;20500;-70
2021/05/20 12:27:26;;;;;;;2.10;0.20;;;19.10;46.90;;;;;;5032477;28;20021;-72
2021/05/20 12:29:56;;;;;;;0.20;0.20;;;19.10;46.90;;;;;;5032240;28;20029;-72
2021/05/20 12:32:24;;;;;;;3.30;0.25;;;19.10;48.20;;;;;;5032364;28;20033;-71
2021/05/20 12:35:13;;;;;;;2.17;0.10;;;19.20;48.10;;;;;;5024175;28;20042;-71
2021/05/20 12:37:50;;;;;;;0.10;0.10;;;19.00;45.80;;;;;;5032129;28;20049;-71
2021/05/20 12:40:31;;;;;;;1.20;0.10;;;18.90;46.10;;;;;;5032325;28;20021;-70
2021/05/20 12:43:17;;;;;;;0.32;0.10;;;18.90;47.20;;;;;;5032125;28;20030;-71
2021/05/20 12:45:45;;;;;;;1.02;0.10;;;18.90;46.80;;;;;;5032635;28;20025;-70
2021/05/20 12:48:21;;;;;;;1.75;0.10;;;18.80;46.00;;;;;;5032002;28;20014;-70
2021/05/20 12:50:47;;;;;;;1.55;0.13;;;18.70;46.40;;;;;;5032122;28;20473;-70
2021/05/20 12:53:23;;;;;;;0.50;0.10;;;18.70;46.20;;;;;;5031905;28;20103;-70
2021/05/20 12:55:51;;;;;;;0.10;0.10;;;18.60;45.50;;;;;;5031661;28;20025;-70
2021/05/20 12:58:16;;;;;;;0.10;0.10;;;18.50;45.90;;;;;;5031869;28;20117;-71
2021/05/20 13:00:58;;;;;;;2.60;0.10;;;18.50;45.90;;;;;;5032026;28;20060;-71
2021/05/20 13:03:46;;;;;;;0.10;0.10;;;18.50;46.20;;;;;;5031948;28;20487;-71
2021/05/20 13:06:20;;;;;;;0.52;0.20;;;18.50;46.30;;;;;;5031685;28;20076;-71
2021/05/20 13:08:46;;;;;;;0.10;0.10;;;18.60;46.90;;;;;;5031925;28;20037;-71
2021/05/20 13:11:15;;;;;;;0.10;0.10;;;18.50;46.10;;;;;;5031986;28;20063;-71
2021/05/20 13:13:43;;;;;;;2.80;0.20;;;18.60;47.10;;;;;;5031724;28;20053;-71